sensor_id;sensor_type;location;lat;lon;timestamp;pressure;altitude;pressure_sealevel;temperature;humidity
57847;BME280;43675;50.030;21.952;2023-05-10T00:01:03;99256.61;;;4.42;56.45
57847;BME280;43675;50.030;21.952;2023-05-10T00:03:29;99259.23;;;4.40;56.46
57847;BME280;43675;50.030;21.952;2023-05-10T00:05:56;99259.15;;;4.38;56.62
57847;BME280;43675;50.030;21.952;2023-05-10T00:08:23;99259.95;;;4.35;56.46
57847;BME280;43675;50.030;21.952;2023-05-10T00:10:49;99257.65;;;4.32;56.69
57847;BME280;43675;50.030;21.952;2023-05-10T00:13:16;99255.11;;;4.29;57.14
57847;BME280;43675;50.030;21.952;2023-05-10T00:15:43;99252.64;;;4.27;57.20
57847;BME280;43675;50.030;21.952;2023-05-10T00:18:09;99253.91;;;4.27;57.17
57847;BME280;43675;50.030;21.952;2023-05-10T00:20:36;99251.70;;;4.24;57.04
57847;BME280;43675;50.030;21.952;2023-05-10T00:23:03;99251.48;;;4.21;57.40
57847;BME280;43675;50.030;21.952;2023-05-10T00:25:29;99254.40;;;4.17;57.64
57847;BME280;43675;50.030;21.952;2023-05-10T00:27:56;99250.92;;;4.13;57.90
57847;BME280;43675;50.030;21.952;2023-05-10T00:30:23;99248.45;;;4.06;58.07
57847;BME280;43675;50.030;21.952;2023-05-10T00:32:49;99248.68;;;3.99;58.30
57847;BME280;43675;50.030;21.952;2023-05-10T00:35:16;99244.36;;;3.93;58.65
57847;BME280;43675;50.030;21.952;2023-05-10T00:37:43;99242.15;;;3.89;58.81
57847;BME280;43675;50.030;21.952;2023-05-10T00:40:10;99239.91;;;3.87;59.12
57847;BME280;43675;50.030;21.952;2023-05-10T00:42:36;99236.98;;;3.86;59.15
57847;BME280;43675;50.030;21.952;2023-05-10T00:45:04;99240.55;;;3.87;59.50
57847;BME280;43675;50.030;21.952;2023-05-10T00:47:31;99241.19;;;3.88;59.94
57847;BME280;43675;50.030;21.952;2023-05-10T00:49:58;99245.79;;;3.86;59.81
57847;BME280;43675;50.030;21.952;2023-05-10T00:52:27;99246.82;;;3.81;59.86
57847;BME280;43675;50.030;21.952;2023-05-10T00:54:54;99246.40;;;3.77;60.02
57847;BME280;43675;50.030;21.952;2023-05-10T00:57:21;99247.67;;;3.73;60.36
57847;BME280;43675;50.030;21.952;2023-05-10T00:59:48;99250.81;;;3.67;60.40
57847;BME280;43675;50.030;21.952;2023-05-10T01:02:15;99249.76;;;3.56;60.65
57847;BME280;43675;50.030;21.952;2023-05-10T01:04:43;99246.20;;;3.50;61.03
57847;BME280;43675;50.030;21.952;2023-05-10T01:07:09;99245.99;;;3.45;61.25
57847;BME280;43675;50.030;21.952;2023-05-10T01:09:36;99238.66;;;3.39;61.54
57847;BME280;43675;50.030;21.952;2023-05-10T01:12:03;99238.18;;;3.33;61.66
57847;BME280;43675;50.030;21.952;2023-05-10T01:14:31;99237.52;;;3.27;61.88
57847;BME280;43675;50.030;21.952;2023-05-10T01:16:58;99236.92;;;3.23;62.24
57847;BME280;43675;50.030;21.952;2023-05-10T01:19:27;99236.11;;;3.20;62.13
57847;BME280;43675;50.030;21.952;2023-05-10T01:22:02;99234.15;;;3.17;62.67
57847;BME280;43675;50.030;21.952;2023-05-10T01:33:17;99227.36;;;2.94;62.71
57847;BME280;43675;50.030;21.952;2023-05-10T01:38:44;99224.31;;;2.81;62.98
57847;BME280;43675;50.030;21.952;2023-05-10T01:41:27;99227.59;;;2.73;63.30
57847;BME280;43675;50.030;21.952;2023-05-10T01:44:36;99227.41;;;2.70;63.66
57847;BME280;43675;50.030;21.952;2023-05-10T01:47:04;99232.33;;;2.67;63.72
57847;BME280;43675;50.030;21.952;2023-05-10T01:49:36;99228.61;;;2.63;63.95
57847;BME280;43675;50.030;21.952;2023-05-10T01:52:10;99226.12;;;2.56;64.01
57847;BME280;43675;50.030;21.952;2023-05-10T01:54:59;99222.61;;;2.49;64.24
57847;BME280;43675;50.030;21.952;2023-05-10T01:57:32;99221.96;;;2.41;64.38
57847;BME280;43675;50.030;21.952;2023-05-10T02:00:01;99219.73;;;2.35;64.59
57847;BME280;43675;50.030;21.952;2023-05-10T02:02:30;99220.21;;;2.30;64.92
57847;BME280;43675;50.030;21.952;2023-05-10T02:04:59;99218.88;;;2.26;65.22
57847;BME280;43675;50.030;21.952;2023-05-10T02:07:27;99219.55;;;2.24;65.35
57847;BME280;43675;50.030;21.952;2023-05-10T02:09:55;99219.77;;;2.20;65.59
57847;BME280;43675;50.030;21.952;2023-05-10T02:12:22;99218.72;;;2.18;65.64
57847;BME280;43675;50.030;21.952;2023-05-10T02:14:51;99217.24;;;2.17;66.03
57847;BME280;43675;50.030;21.952;2023-05-10T02:17:19;99212.09;;;2.16;66.18
57847;BME280;43675;50.030;21.952;2023-05-10T02:19:47;99210.69;;;2.15;66.40
57847;BME280;43675;50.030;21.952;2023-05-10T02:22:15;99212.95;;;2.16;66.60
57847;BME280;43675;50.030;21.952;2023-05-10T02:24:43;99211.66;;;2.16;66.65
57847;BME280;43675;50.030;21.952;2023-05-10T02:27:12;99211.48;;;2.16;66.53
57847;BME280;43675;50.030;21.952;2023-05-10T02:29:40;99206.51;;;2.15;66.64
57847;BME280;43675;50.030;21.952;2023-05-10T02:32:08;99205.92;;;2.14;66.77
57847;BME280;43675;50.030;21.952;2023-05-10T02:34:36;99204.19;;;2.12;66.81
57847;BME280;43675;50.030;21.952;2023-05-10T02:37:04;99200.73;;;2.11;67.04
57847;BME280;43675;50.030;21.952;2023-05-10T02:39:32;99202.02;;;2.08;67.12
57847;BME280;43675;50.030;21.952;2023-05-10T02:42:00;99201.25;;;2.06;67.10
57847;BME280;43675;50.030;21.952;2023-05-10T02:44:28;99200.08;;;2.03;67.31
57847;BME280;43675;50.030;21.952;2023-05-10T02:46:55;99198.52;;;2.03;67.52
57847;BME280;43675;50.030;21.952;2023-05-10T02:49:22;99203.23;;;2.01;67.88
57847;BME280;43675;50.030;21.952;2023-05-10T02:51:53;99203.77;;;2.00;67.69
57847;BME280;43675;50.030;21.952;2023-05-10T02:54:28;99207.46;;;1.98;67.75
57847;BME280;43675;50.030;21.952;2023-05-10T02:56:58;99209.81;;;1.98;67.85
57847;BME280;43675;50.030;21.952;2023-05-10T02:59:24;99209.16;;;1.95;67.77
57847;BME280;43675;50.030;21.952;2023-05-10T03:01:51;99212.31;;;1.94;67.80
57847;BME280;43675;50.030;21.952;2023-05-10T03:04:18;99214.92;;;1.90;67.94
57847;BME280;43675;50.030;21.952;2023-05-10T03:06:45;99211.52;;;1.87;68.04
57847;BME280;43675;50.030;21.952;2023-05-10T03:09:12;99210.59;;;1.83;68.17
57847;BME280;43675;50.030;21.952;2023-05-10T03:14:28;99208.14;;;1.78;68.34
57847;BME280;43675;50.030;21.952;2023-05-10T03:17:06;99207.66;;;1.79;68.51
57847;BME280;43675;50.030;21.952;2023-05-10T03:19:45;99209.45;;;1.84;68.73
57847;BME280;43675;50.030;21.952;2023-05-10T03:22:20;99209.15;;;1.90;68.62
57847;BME280;43675;50.030;21.952;2023-05-10T03:24:48;99205.42;;;1.94;68.67
57847;BME280;43675;50.030;21.952;2023-05-10T03:27:16;99206.75;;;2.04;68.62
57847;BME280;43675;50.030;21.952;2023-05-10T03:29:44;99208.76;;;2.06;68.77
57847;BME280;43675;50.030;21.952;2023-05-10T03:32:11;99208.34;;;2.11;68.79
57847;BME280;43675;50.030;21.952;2023-05-10T03:34:41;99210.23;;;2.15;68.78
57847;BME280;43675;50.030;21.952;2023-05-10T03:37:08;99212.33;;;2.19;68.90
57847;BME280;43675;50.030;21.952;2023-05-10T03:39:36;99213.71;;;2.24;69.11
57847;BME280;43675;50.030;21.952;2023-05-10T03:42:02;99210.40;;;2.31;69.07
57847;BME280;43675;50.030;21.952;2023-05-10T03:44:29;99210.32;;;2.39;68.99
57847;BME280;43675;50.030;21.952;2023-05-10T03:46:55;99206.39;;;2.48;69.10
57847;BME280;43675;50.030;21.952;2023-05-10T03:49:22;99203.97;;;2.57;68.95
57847;BME280;43675;50.030;21.952;2023-05-10T03:51:49;99208.02;;;2.68;68.81
57847;BME280;43675;50.030;21.952;2023-05-10T03:54:16;99200.93;;;2.76;68.88
57847;BME280;43675;50.030;21.952;2023-05-10T03:56:42;99198.60;;;2.86;68.76
57847;BME280;43675;50.030;21.952;2023-05-10T03:59:09;99191.96;;;2.96;68.77
57847;BME280;43675;50.030;21.952;2023-05-10T04:01:35;99191.95;;;3.04;68.54
57847;BME280;43675;50.030;21.952;2023-05-10T04:04:02;99196.61;;;3.14;68.34
57847;BME280;43675;50.030;21.952;2023-05-10T04:06:28;99193.98;;;3.24;68.20
57847;BME280;43675;50.030;21.952;2023-05-10T04:08:55;99192.73;;;3.34;68.21
57847;BME280;43675;50.030;21.952;2023-05-10T04:11:21;99193.33;;;3.44;68.08
57847;BME280;43675;50.030;21.952;2023-05-10T04:13:48;99190.56;;;3.56;68.09
57847;BME280;43675;50.030;21.952;2023-05-10T04:16:14;99192.02;;;3.67;68.13
57847;BME280;43675;50.030;21.952;2023-05-10T04:18:41;99191.64;;;3.77;68.03
57847;BME280;43675;50.030;21.952;2023-05-10T04:21:12;99193.61;;;3.89;68.09
57847;BME280;43675;50.030;21.952;2023-05-10T04:23:38;99195.14;;;4.01;67.86
57847;BME280;43675;50.030;21.952;2023-05-10T04:26:05;99191.59;;;4.15;67.42
57847;BME280;43675;50.030;21.952;2023-05-10T04:28:31;99194.45;;;4.26;67.56
57847;BME280;43675;50.030;21.952;2023-05-10T04:31:09;99193.86;;;4.39;67.29
57847;BME280;43675;50.030;21.952;2023-05-10T04:33:37;99193.33;;;4.52;66.99
57847;BME280;43675;50.030;21.952;2023-05-10T04:36:04;99195.73;;;4.65;66.70
57847;BME280;43675;50.030;21.952;2023-05-10T04:38:30;99199.00;;;4.78;66.81
57847;BME280;43675;50.030;21.952;2023-05-10T04:41:07;99196.66;;;4.90;66.39
57847;BME280;43675;50.030;21.952;2023-05-10T04:43:34;99195.73;;;5.03;66.39
57847;BME280;43675;50.030;21.952;2023-05-10T04:46:01;99196.15;;;5.17;66.04
57847;BME280;43675;50.030;21.952;2023-05-10T04:48:28;99196.80;;;5.29;66.06
57847;BME280;43675;50.030;21.952;2023-05-10T04:50:55;99195.65;;;5.40;65.77
57847;BME280;43675;50.030;21.952;2023-05-10T04:53:22;99197.27;;;5.53;65.49
57847;BME280;43675;50.030;21.952;2023-05-10T04:55:49;99192.77;;;5.68;65.25
57847;BME280;43675;50.030;21.952;2023-05-10T04:58:15;99189.80;;;5.82;65.18
57847;BME280;43675;50.030;21.952;2023-05-10T05:00:42;99192.63;;;5.96;64.89
57847;BME280;43675;50.030;21.952;2023-05-10T05:03:08;99189.84;;;6.11;64.62
57847;BME280;43675;50.030;21.952;2023-05-10T05:05:35;99191.72;;;6.27;64.27
57847;BME280;43675;50.030;21.952;2023-05-10T05:08:02;99187.48;;;6.43;63.97
57847;BME280;43675;50.030;21.952;2023-05-10T05:10:28;99190.92;;;6.59;63.55
57847;BME280;43675;50.030;21.952;2023-05-10T05:12:55;99189.33;;;6.76;63.04
57847;BME280;43675;50.030;21.952;2023-05-10T05:15:22;99188.86;;;6.88;62.82
57847;BME280;43675;50.030;21.952;2023-05-10T05:17:48;99187.48;;;7.00;62.57
57847;BME280;43675;50.030;21.952;2023-05-10T05:20:15;99183.73;;;7.12;62.29
57847;BME280;43675;50.030;21.952;2023-05-10T05:22:41;99181.52;;;7.25;61.89
57847;BME280;43675;50.030;21.952;2023-05-10T05:25:08;99177.32;;;7.37;61.47
57847;BME280;43675;50.030;21.952;2023-05-10T05:27:35;99175.02;;;7.51;61.18
57847;BME280;43675;50.030;21.952;2023-05-10T05:30:01;99175.64;;;7.65;60.73
57847;BME280;43675;50.030;21.952;2023-05-10T05:32:28;99171.39;;;7.78;60.65
57847;BME280;43675;50.030;21.952;2023-05-10T05:34:54;99176.71;;;7.91;60.26
57847;BME280;43675;50.030;21.952;2023-05-10T05:37:21;99175.77;;;8.03;59.91
57847;BME280;43675;50.030;21.952;2023-05-10T05:39:48;99176.95;;;8.16;59.55
57847;BME280;43675;50.030;21.952;2023-05-10T05:42:15;99179.38;;;8.28;59.29
57847;BME280;43675;50.030;21.952;2023-05-10T05:44:41;99178.57;;;8.41;58.81
57847;BME280;43675;50.030;21.952;2023-05-10T05:47:08;99176.16;;;8.55;58.67
57847;BME280;43675;50.030;21.952;2023-05-10T05:49:35;99175.26;;;8.67;58.29
57847;BME280;43675;50.030;21.952;2023-05-10T05:52:03;99173.93;;;8.79;58.35
57847;BME280;43675;50.030;21.952;2023-05-10T05:54:30;99174.22;;;8.90;58.01
57847;BME280;43675;50.030;21.952;2023-05-10T05:56:58;99167.78;;;9.02;58.11
57847;BME280;43675;50.030;21.952;2023-05-10T05:59:25;99169.05;;;9.16;57.61
57847;BME280;43675;50.030;21.952;2023-05-10T06:01:52;99167.96;;;9.45;56.94
57847;BME280;43675;50.030;21.952;2023-05-10T06:04:19;99164.66;;;9.75;56.33
57847;BME280;43675;50.030;21.952;2023-05-10T06:06:45;99161.50;;;9.99;55.82
57847;BME280;43675;50.030;21.952;2023-05-10T06:09:12;99166.15;;;10.21;55.38
57847;BME280;43675;50.030;21.952;2023-05-10T06:11:39;99167.45;;;10.27;55.15
57847;BME280;43675;50.030;21.952;2023-05-10T06:14:05;99163.77;;;10.30;55.10
57847;BME280;43675;50.030;21.952;2023-05-10T06:16:32;99164.52;;;10.36;55.01
57847;BME280;43675;50.030;21.952;2023-05-10T06:18:59;99168.15;;;10.48;55.00
57847;BME280;43675;50.030;21.952;2023-05-10T06:21:25;99167.73;;;10.61;54.55
57847;BME280;43675;50.030;21.952;2023-05-10T06:23:52;99168.30;;;10.74;54.31
57847;BME280;43675;50.030;21.952;2023-05-10T06:26:18;99166.98;;;10.87;53.67
57847;BME280;43675;50.030;21.952;2023-05-10T06:28:45;99167.61;;;11.00;53.59
57847;BME280;43675;50.030;21.952;2023-05-10T06:31:11;99167.80;;;11.12;53.16
57847;BME280;43675;50.030;21.952;2023-05-10T06:33:38;99163.67;;;11.22;52.94
57847;BME280;43675;50.030;21.952;2023-05-10T06:36:05;99159.95;;;11.32;52.27
57847;BME280;43675;50.030;21.952;2023-05-10T06:38:32;99161.86;;;11.42;51.95
57847;BME280;43675;50.030;21.952;2023-05-10T06:40:58;99157.95;;;11.53;51.76
57847;BME280;43675;50.030;21.952;2023-05-10T06:43:25;99158.52;;;11.64;51.60
57847;BME280;43675;50.030;21.952;2023-05-10T06:45:51;99157.20;;;11.75;51.37
57847;BME280;43675;50.030;21.952;2023-05-10T06:48:18;99157.46;;;11.87;50.92
57847;BME280;43675;50.030;21.952;2023-05-10T06:50:45;99157.48;;;12.00;50.26
57847;BME280;43675;50.030;21.952;2023-05-10T06:53:11;99154.54;;;12.12;49.81
57847;BME280;43675;50.030;21.952;2023-05-10T06:55:38;99150.93;;;12.25;49.27
57847;BME280;43675;50.030;21.952;2023-05-10T06:58:05;99151.73;;;12.38;49.03
57847;BME280;43675;50.030;21.952;2023-05-10T07:00:31;99150.42;;;12.50;48.76
57847;BME280;43675;50.030;21.952;2023-05-10T07:02:58;99152.27;;;12.61;48.41
57847;BME280;43675;50.030;21.952;2023-05-10T07:05:25;99149.05;;;12.72;47.71
57847;BME280;43675;50.030;21.952;2023-05-10T07:07:51;99149.83;;;12.82;47.14
57847;BME280;43675;50.030;21.952;2023-05-10T07:10:18;99150.09;;;12.91;46.64
57847;BME280;43675;50.030;21.952;2023-05-10T07:12:45;99151.31;;;13.00;46.27
57847;BME280;43675;50.030;21.952;2023-05-10T07:15:11;99151.14;;;13.09;45.96
57847;BME280;43675;50.030;21.952;2023-05-10T07:17:38;99151.14;;;13.18;45.03
57847;BME280;43675;50.030;21.952;2023-05-10T07:20:05;99148.74;;;13.26;44.47
57847;BME280;43675;50.030;21.952;2023-05-10T07:22:32;99152.70;;;13.35;43.96
57847;BME280;43675;50.030;21.952;2023-05-10T07:24:58;99147.75;;;13.41;43.61
57847;BME280;43675;50.030;21.952;2023-05-10T07:27:25;99149.95;;;13.48;43.38
57847;BME280;43675;50.030;21.952;2023-05-10T07:29:52;99154.88;;;13.54;43.04
57847;BME280;43675;50.030;21.952;2023-05-10T07:32:18;99152.19;;;13.59;42.81
57847;BME280;43675;50.030;21.952;2023-05-10T07:34:45;99153.45;;;13.65;42.33
57847;BME280;43675;50.030;21.952;2023-05-10T07:37:11;99156.03;;;13.71;42.28
57847;BME280;43675;50.030;21.952;2023-05-10T07:39:38;99158.46;;;13.78;41.53
57847;BME280;43675;50.030;21.952;2023-05-10T07:42:05;99154.42;;;13.79;41.04
57847;BME280;43675;50.030;21.952;2023-05-10T07:44:32;99151.86;;;13.83;41.13
57847;BME280;43675;50.030;21.952;2023-05-10T07:46:58;99151.73;;;13.87;40.75
57847;BME280;43675;50.030;21.952;2023-05-10T07:49:25;99149.61;;;13.91;40.86
57847;BME280;43675;50.030;21.952;2023-05-10T07:51:52;99150.74;;;13.94;40.55
57847;BME280;43675;50.030;21.952;2023-05-10T07:54:19;99150.48;;;13.97;40.21
57847;BME280;43675;50.030;21.952;2023-05-10T07:56:45;99150.98;;;13.99;39.73
57847;BME280;43675;50.030;21.952;2023-05-10T07:59:16;99152.06;;;14.03;39.77
57847;BME280;43675;50.030;21.952;2023-05-10T08:01:43;99149.40;;;14.08;39.76
57847;BME280;43675;50.030;21.952;2023-05-10T08:04:10;99151.13;;;14.13;39.56
57847;BME280;43675;50.030;21.952;2023-05-10T08:06:36;99154.05;;;14.17;39.36
57847;BME280;43675;50.030;21.952;2023-05-10T08:09:03;99154.99;;;14.21;39.36
57847;BME280;43675;50.030;21.952;2023-05-10T08:11:30;99152.83;;;14.26;39.11
57847;BME280;43675;50.030;21.952;2023-05-10T08:13:57;99154.98;;;14.30;38.79
57847;BME280;43675;50.030;21.952;2023-05-10T08:16:23;99155.63;;;14.34;38.68
57847;BME280;43675;50.030;21.952;2023-05-10T08:18:50;99152.91;;;14.38;38.60
57847;BME280;43675;50.030;21.952;2023-05-10T08:21:17;99153.45;;;14.43;38.18
57847;BME280;43675;50.030;21.952;2023-05-10T08:23:43;99151.43;;;14.48;38.24
57847;BME280;43675;50.030;21.952;2023-05-10T08:26:10;99151.50;;;14.53;38.03
57847;BME280;43675;50.030;21.952;2023-05-10T08:28:38;99153.20;;;14.62;38.25
57847;BME280;43675;50.030;21.952;2023-05-10T08:31:04;99154.76;;;14.72;37.97
57847;BME280;43675;50.030;21.952;2023-05-10T08:33:31;99154.20;;;14.80;37.99
57847;BME280;43675;50.030;21.952;2023-05-10T08:35:58;99155.14;;;14.81;37.47
57847;BME280;43675;50.030;21.952;2023-05-10T08:38:25;99163.61;;;14.82;37.32
57847;BME280;43675;50.030;21.952;2023-05-10T08:40:53;99155.52;;;14.83;37.03
57847;BME280;43675;50.030;21.952;2023-05-10T08:43:20;99154.63;;;14.84;37.14
57847;BME280;43675;50.030;21.952;2023-05-10T08:45:48;99153.21;;;14.85;36.98
57847;BME280;43675;50.030;21.952;2023-05-10T08:48:16;99155.79;;;14.87;37.10
57847;BME280;43675;50.030;21.952;2023-05-10T08:50:44;99156.52;;;14.90;37.04
57847;BME280;43675;50.030;21.952;2023-05-10T08:53:12;99156.89;;;14.94;36.91
57847;BME280;43675;50.030;21.952;2023-05-10T08:55:41;99161.06;;;14.96;36.90
57847;BME280;43675;50.030;21.952;2023-05-10T08:58:09;99157.80;;;15.01;36.88
57847;BME280;43675;50.030;21.952;2023-05-10T09:00:36;99164.66;;;15.05;36.83
57847;BME280;43675;50.030;21.952;2023-05-10T09:03:04;99156.48;;;15.08;36.57
57847;BME280;43675;50.030;21.952;2023-05-10T09:05:31;99154.73;;;15.10;36.55
57847;BME280;43675;50.030;21.952;2023-05-10T09:07:58;99158.39;;;15.10;36.25
57847;BME280;43675;50.030;21.952;2023-05-10T09:10:25;99155.64;;;15.10;36.40
57847;BME280;43675;50.030;21.952;2023-05-10T09:12:53;99156.58;;;15.15;36.28
57847;BME280;43675;50.030;21.952;2023-05-10T09:15:22;99152.71;;;15.23;36.35
57847;BME280;43675;50.030;21.952;2023-05-10T09:17:49;99156.58;;;15.35;36.23
57847;BME280;43675;50.030;21.952;2023-05-10T09:20:16;99154.88;;;15.45;35.75
57847;BME280;43675;50.030;21.952;2023-05-10T09:22:43;99149.83;;;15.48;35.73
57847;BME280;43675;50.030;21.952;2023-05-10T09:25:11;99143.48;;;15.51;35.84
57847;BME280;43675;50.030;21.952;2023-05-10T09:27:40;99141.51;;;15.57;35.68
57847;BME280;43675;50.030;21.952;2023-05-10T09:30:08;99141.98;;;15.63;35.62
57847;BME280;43675;50.030;21.952;2023-05-10T09:35:14;99137.98;;;15.71;35.35
57847;BME280;43675;50.030;21.952;2023-05-10T09:37:43;99140.30;;;15.75;35.00
57847;BME280;43675;50.030;21.952;2023-05-10T09:40:18;99136.65;;;15.79;35.13
57847;BME280;43675;50.030;21.952;2023-05-10T09:45:25;99134.12;;;15.89;34.66
57847;BME280;43675;50.030;21.952;2023-05-10T09:47:53;99134.52;;;15.92;34.39
57847;BME280;43675;50.030;21.952;2023-05-10T09:50:21;99139.13;;;15.97;34.45
57847;BME280;43675;50.030;21.952;2023-05-10T09:52:52;99132.45;;;16.00;34.27
57847;BME280;43675;50.030;21.952;2023-05-10T09:55:22;99126.88;;;16.02;34.07
57847;BME280;43675;50.030;21.952;2023-05-10T09:57:49;99127.85;;;16.05;33.86
57847;BME280;43675;50.030;21.952;2023-05-10T10:00:24;99123.58;;;16.13;34.09
57847;BME280;43675;50.030;21.952;2023-05-10T10:02:56;99127.58;;;16.25;33.93
57847;BME280;43675;50.030;21.952;2023-05-10T10:05:35;99120.28;;;16.32;33.77
57847;BME280;43675;50.030;21.952;2023-05-10T10:08:05;99114.95;;;16.36;33.66
57847;BME280;43675;50.030;21.952;2023-05-10T10:10:33;99114.61;;;16.38;33.99
57847;BME280;43675;50.030;21.952;2023-05-10T10:13:01;99116.38;;;16.43;33.79
57847;BME280;43675;50.030;21.952;2023-05-10T10:15:28;99116.21;;;16.42;33.30
57847;BME280;43675;50.030;21.952;2023-05-10T10:17:54;99116.71;;;16.38;33.30
57847;BME280;43675;50.030;21.952;2023-05-10T10:20:22;99116.40;;;16.27;32.95
57847;BME280;43675;50.030;21.952;2023-05-10T10:22:49;99110.30;;;16.20;33.03
57847;BME280;43675;50.030;21.952;2023-05-10T10:25:16;99111.88;;;16.20;33.40
57847;BME280;43675;50.030;21.952;2023-05-10T10:35:58;99095.49;;;16.19;33.74
57847;BME280;43675;50.030;21.952;2023-05-10T10:38:25;99086.88;;;16.36;33.81
57847;BME280;43675;50.030;21.952;2023-05-10T10:41:03;99085.26;;;16.57;33.67
57847;BME280;43675;50.030;21.952;2023-05-10T10:43:34;99081.91;;;16.79;33.22
57847;BME280;43675;50.030;21.952;2023-05-10T10:46:16;99075.54;;;17.00;33.05
57847;BME280;43675;50.030;21.952;2023-05-10T10:48:51;99070.88;;;17.20;32.95
57847;BME280;43675;50.030;21.952;2023-05-10T10:51:38;99064.22;;;17.35;32.75
57847;BME280;43675;50.030;21.952;2023-05-10T10:54:11;99066.64;;;17.40;32.28
57847;BME280;43675;50.030;21.952;2023-05-10T10:56:38;99063.70;;;17.37;32.22
57847;BME280;43675;50.030;21.952;2023-05-10T10:59:04;99060.24;;;17.30;32.31
57847;BME280;43675;50.030;21.952;2023-05-10T11:01:34;99057.04;;;17.27;32.45
57847;BME280;43675;50.030;21.952;2023-05-10T11:06:31;99046.35;;;17.34;32.51
57847;BME280;43675;50.030;21.952;2023-05-10T11:08:58;99045.14;;;17.44;32.48
57847;BME280;43675;50.030;21.952;2023-05-10T11:11:24;99041.66;;;17.58;32.41
57847;BME280;43675;50.030;21.952;2023-05-10T11:13:51;99038.84;;;17.68;31.98
57847;BME280;43675;50.030;21.952;2023-05-10T11:18:57;99036.70;;;17.79;31.28
57847;BME280;43675;50.030;21.952;2023-05-10T11:21:24;99036.46;;;17.78;31.05
57847;BME280;43675;50.030;21.952;2023-05-10T11:23:53;99037.93;;;17.82;31.18
57847;BME280;43675;50.030;21.952;2023-05-10T11:26:20;99034.41;;;17.87;31.00
57847;BME280;43675;50.030;21.952;2023-05-10T11:28:49;99040.88;;;17.87;30.47
57847;BME280;43675;50.030;21.952;2023-05-10T11:31:17;99039.38;;;17.85;30.08
57847;BME280;43675;50.030;21.952;2023-05-10T11:33:50;99044.16;;;17.86;29.77
57847;BME280;43675;50.030;21.952;2023-05-10T11:36:24;99039.62;;;17.91;29.76
57847;BME280;43675;50.030;21.952;2023-05-10T11:38:51;99036.31;;;18.02;29.47
57847;BME280;43675;50.030;21.952;2023-05-10T11:41:19;99032.52;;;18.06;29.34
57847;BME280;43675;50.030;21.952;2023-05-10T11:43:47;99030.20;;;18.13;29.19
57847;BME280;43675;50.030;21.952;2023-05-10T11:46:13;99027.70;;;18.22;29.03
57847;BME280;43675;50.030;21.952;2023-05-10T11:48:41;99019.54;;;18.26;28.89
57847;BME280;43675;50.030;21.952;2023-05-10T11:51:09;99022.80;;;18.16;28.49
57847;BME280;43675;50.030;21.952;2023-05-10T11:53:36;99019.95;;;18.05;28.54
57847;BME280;43675;50.030;21.952;2023-05-10T11:56:12;99023.80;;;17.95;28.51
57847;BME280;43675;50.030;21.952;2023-05-10T11:58:39;99020.36;;;17.89;28.04
57847;BME280;43675;50.030;21.952;2023-05-10T12:01:07;99020.69;;;17.80;28.07
57847;BME280;43675;50.030;21.952;2023-05-10T12:03:34;99024.61;;;17.72;27.95
57847;BME280;43675;50.030;21.952;2023-05-10T12:06:02;99023.52;;;17.71;28.26
57847;BME280;43675;50.030;21.952;2023-05-10T12:08:29;99020.36;;;17.75;28.44
57847;BME280;43675;50.030;21.952;2023-05-10T12:11:14;99019.70;;;17.79;28.69
57847;BME280;43675;50.030;21.952;2023-05-10T12:13:42;99009.16;;;17.79;28.39
57847;BME280;43675;50.030;21.952;2023-05-10T12:18:40;99012.25;;;17.73;28.58
57847;BME280;43675;50.030;21.952;2023-05-10T12:21:07;99012.95;;;17.69;28.62
57847;BME280;43675;50.030;21.952;2023-05-10T12:23:33;99007.43;;;17.66;28.47
57847;BME280;43675;50.030;21.952;2023-05-10T12:26:03;99003.23;;;17.66;28.58
57847;BME280;43675;50.030;21.952;2023-05-10T12:28:30;99000.14;;;17.69;28.72
57847;BME280;43675;50.030;21.952;2023-05-10T12:30:59;98999.16;;;17.74;28.70
57847;BME280;43675;50.030;21.952;2023-05-10T12:33:25;98999.19;;;17.77;28.67
57847;BME280;43675;50.030;21.952;2023-05-10T12:35:54;98992.92;;;17.77;28.42
57847;BME280;43675;50.030;21.952;2023-05-10T12:41:02;98989.25;;;17.79;28.45
57847;BME280;43675;50.030;21.952;2023-05-10T12:43:29;98987.64;;;17.81;28.35
57847;BME280;43675;50.030;21.952;2023-05-10T12:45:56;98984.70;;;17.80;28.47
57847;BME280;43675;50.030;21.952;2023-05-10T12:48:24;98986.19;;;17.78;28.47
57847;BME280;43675;50.030;21.952;2023-05-10T12:50:50;98985.81;;;17.74;28.71
57847;BME280;43675;50.030;21.952;2023-05-10T12:53:17;98982.68;;;17.75;28.58
57847;BME280;43675;50.030;21.952;2023-05-10T12:55:44;98974.33;;;17.80;28.91
57847;BME280;43675;50.030;21.952;2023-05-10T12:58:10;98978.23;;;17.88;28.99
57847;BME280;43675;50.030;21.952;2023-05-10T13:00:37;98978.40;;;18.04;29.06
57847;BME280;43675;50.030;21.952;2023-05-10T13:03:04;98971.33;;;18.24;28.79
57847;BME280;43675;50.030;21.952;2023-05-10T13:05:32;98967.48;;;18.44;28.72
57847;BME280;43675;50.030;21.952;2023-05-10T13:07:59;98971.22;;;18.63;28.80
57847;BME280;43675;50.030;21.952;2023-05-10T13:10:25;98962.89;;;18.81;28.50
57847;BME280;43675;50.030;21.952;2023-05-10T13:12:52;98956.27;;;18.92;28.34
57847;BME280;43675;50.030;21.952;2023-05-10T13:15:18;98952.05;;;19.03;28.50
57847;BME280;43675;50.030;21.952;2023-05-10T13:17:45;98947.73;;;19.10;28.13
57847;BME280;43675;50.030;21.952;2023-05-10T13:20:11;98946.53;;;19.18;27.92
57847;BME280;43675;50.030;21.952;2023-05-10T13:22:38;98944.83;;;19.23;27.97
57847;BME280;43675;50.030;21.952;2023-05-10T13:25:05;98943.99;;;19.22;28.06
57847;BME280;43675;50.030;21.952;2023-05-10T13:27:31;98948.34;;;19.19;28.04
57847;BME280;43675;50.030;21.952;2023-05-10T13:29:58;98945.05;;;19.14;27.88
57847;BME280;43675;50.030;21.952;2023-05-10T13:32:25;98943.98;;;19.11;28.03
57847;BME280;43675;50.030;21.952;2023-05-10T13:34:52;98937.62;;;19.01;27.83
57847;BME280;43675;50.030;21.952;2023-05-10T13:37:18;98937.07;;;18.91;27.94